Time;durP1;ratioP1;P1;durP2;ratioP2;P2;SDS_P1;SDS_P2;PMS_P1;PMS_P2;Temp;Humidity;BMP_temperature;BMP_pressure;BME280_temperature;BME280_humidity;BME280_pressure;Samples;Min_cycle;Max_cycle;Signal;HPM_P1;HPM_P2
2022/05/04 00:00:22;;;;;;;8.70;2.08;;;8.20;91.00;;;;;;5088157;28;20381;-69
2022/05/04 00:02:48;;;;;;;9.88;3.10;;;8.20;91.10;;;;;;5069139;28;20502;-69
2022/05/04 00:05:14;;;;;;;8.80;2.13;;;8.20;91.10;;;;;;5066262;28;20047;-69
2022/05/04 00:07:39;;;;;;;8.07;1.92;;;8.20;91.00;;;;;;5071933;28;20097;-69
2022/05/04 00:10:06;;;;;;;12.48;1.80;;;8.20;91.30;;;;;;5089078;28;20032;-69
2022/05/04 00:12:33;;;;;;;13.43;1.98;;;8.20;91.10;;;;;;5081682;28;20067;-68
2022/05/04 00:14:59;;;;;;;7.82;1.77;;;8.20;91.20;;;;;;5089125;28;20063;-68
2022/05/04 00:17:25;;;;;;;10.70;1.90;;;8.20;91.40;;;;;;5058439;28;20036;-68
2022/05/04 00:19:51;;;;;;;9.60;2.10;;;8.20;91.40;;;;;;5072909;28;20636;-68
2022/05/04 00:22:20;;;;;;;8.77;2.40;;;8.20;91.40;;;;;;5072695;28;20039;-68
2022/05/04 00:24:47;;;;;;;8.43;2.33;;;8.20;91.30;;;;;;5073749;28;20047;-68
2022/05/04 00:27:15;;;;;;;9.43;2.08;;;8.20;91.50;;;;;;5073723;28;20032;-68
2022/05/04 00:29:44;;;;;;;10.77;1.98;;;8.20;91.80;;;;;;5073203;28;20048;-68
2022/05/04 00:32:17;;;;;;;10.93;2.50;;;8.20;92.00;;;;;;5072298;28;20036;-68
2022/05/04 00:34:43;;;;;;;8.15;2.00;;;8.20;92.10;;;;;;5089167;28;20047;-68
2022/05/04 00:37:09;;;;;;;10.80;2.88;;;8.20;92.20;;;;;;5092831;28;20043;-68
2022/05/04 00:39:35;;;;;;;11.75;1.88;;;8.20;92.10;;;;;;5073843;28;20372;-68
2022/05/04 00:42:09;;;;;;;7.07;1.90;;;8.20;92.10;;;;;;5074311;28;20411;-69
2022/05/04 00:44:35;;;;;;;9.65;2.22;;;8.20;92.00;;;;;;5072666;28;20108;-69
2022/05/04 00:47:00;;;;;;;10.05;2.40;;;8.10;92.10;;;;;;5072882;28;20048;-69
2022/05/04 00:49:26;;;;;;;6.53;1.77;;;8.10;92.00;;;;;;5055487;28;20173;-69
2022/05/04 00:51:52;;;;;;;12.45;2.00;;;8.20;92.10;;;;;;5074930;28;20151;-69
2022/05/04 00:54:19;;;;;;;8.23;1.92;;;8.20;92.00;;;;;;5091681;28;20076;-69
2022/05/04 00:56:44;;;;;;;8.07;2.20;;;8.10;92.00;;;;;;5072698;28;20063;-69
2022/05/04 00:59:10;;;;;;;13.65;2.13;;;8.20;92.10;;;;;;5092006;28;20479;-69
2022/05/04 01:01:36;;;;;;;11.25;1.80;;;8.20;92.10;;;;;;5069607;28;20040;-67
2022/05/04 01:04:02;;;;;;;8.35;2.00;;;8.20;92.20;;;;;;5073879;28;20661;-68
2022/05/04 01:06:28;;;;;;;10.05;2.25;;;8.10;92.20;;;;;;5071850;28;20073;-68
2022/05/04 01:08:54;;;;;;;9.02;1.98;;;8.20;92.40;;;;;;5071258;28;20050;-68
2022/05/04 01:11:21;;;;;;;12.75;2.20;;;8.10;92.60;;;;;;5089880;28;20035;-68
2022/05/04 01:14:06;;;;;;;10.23;2.20;;;8.10;92.80;;;;;;5072329;28;20059;-68
2022/05/04 01:16:33;;;;;;;7.85;2.20;;;8.10;93.10;;;;;;5070525;28;20540;-69
2022/05/04 01:18:59;;;;;;;9.10;2.60;;;8.10;93.30;;;;;;5089363;28;20036;-68
2022/05/04 01:21:25;;;;;;;13.30;2.75;;;8.10;93.70;;;;;;5071383;28;20047;-68
2022/05/04 01:23:53;;;;;;;10.30;2.58;;;8.10;93.90;;;;;;5071598;28;20048;-68
2022/05/04 01:26:19;;;;;;;9.93;2.45;;;8.10;94.10;;;;;;5088924;28;20040;-68
2022/05/04 01:28:46;;;;;;;6.63;2.50;;;8.10;94.00;;;;;;5090589;28;20388;-68
2022/05/04 01:31:12;;;;;;;12.32;2.65;;;8.00;94.40;;;;;;5088578;28;20721;-68
2022/05/04 01:33:38;;;;;;;9.52;2.42;;;8.00;94.40;;;;;;5054303;28;20051;-68
2022/05/04 01:36:04;;;;;;;10.65;2.28;;;8.00;94.20;;;;;;5038727;28;20045;-68
2022/05/04 01:38:30;;;;;;;8.80;2.10;;;8.00;94.30;;;;;;5071462;28;20510;-68
2022/05/04 01:40:55;;;;;;;8.35;2.40;;;8.00;94.20;;;;;;5071328;28;20040;-68
2022/05/04 01:43:21;;;;;;;7.30;1.95;;;8.00;94.30;;;;;;5090697;28;20042;-68
2022/05/04 01:45:47;;;;;;;9.93;2.45;;;8.00;94.40;;;;;;5089784;28;20032;-68
2022/05/04 01:48:13;;;;;;;11.52;2.67;;;8.00;94.50;;;;;;5071839;28;20040;-68
2022/05/04 01:50:38;;;;;;;11.32;3.13;;;7.90;94.40;;;;;;5071558;28;20055;-68
2022/05/04 01:53:04;;;;;;;7.95;2.65;;;7.90;94.50;;;;;;5069196;28;20082;-68
2022/05/04 01:55:33;;;;;;;8.95;2.50;;;7.90;94.60;;;;;;5088719;28;20097;-68
2022/05/04 01:57:59;;;;;;;14.57;2.90;;;7.90;94.70;;;;;;5089625;28;20076;-69
2022/05/04 02:00:25;;;;;;;11.35;2.58;;;7.90;94.70;;;;;;5090992;28;20479;-69
2022/05/04 02:02:52;;;;;;;9.50;2.45;;;7.80;95.00;;;;;;5067889;28;20086;-69
2022/05/04 02:05:18;;;;;;;11.90;2.95;;;7.90;94.80;;;;;;5070657;28;20487;-69
2022/05/04 02:07:44;;;;;;;9.05;2.53;;;7.80;95.00;;;;;;5072116;28;20474;-69
2022/05/04 02:10:11;;;;;;;11.38;2.75;;;7.80;95.00;;;;;;5089747;28;20495;-68
2022/05/04 02:12:37;;;;;;;10.18;2.88;;;7.80;95.10;;;;;;5087897;28;20036;-68
2022/05/04 02:15:08;;;;;;;8.05;2.05;;;7.80;95.10;;;;;;5072062;28;20036;-69
2022/05/04 02:17:35;;;;;;;9.80;2.00;;;7.70;95.00;;;;;;5088565;28;20036;-69
2022/05/04 02:20:01;;;;;;;8.93;2.85;;;7.80;95.10;;;;;;5088607;28;20081;-69
2022/05/04 02:22:27;;;;;;;9.00;2.70;;;7.80;95.10;;;;;;5054452;28;20040;-69
2022/05/04 02:24:52;;;;;;;8.70;2.60;;;7.80;95.00;;;;;;5070833;28;20048;-69
2022/05/04 02:27:18;;;;;;;9.05;2.25;;;7.80;95.00;;;;;;5069671;28;20405;-69
2022/05/04 02:29:44;;;;;;;12.75;2.95;;;7.80;95.40;;;;;;5069451;28;20055;-69
2022/05/04 02:32:10;;;;;;;10.20;2.42;;;7.80;95.20;;;;;;5088200;28;20074;-69
2022/05/04 02:40:05;;;;;;;11.93;2.72;;;7.70;95.50;;;;;;5071587;28;20051;-69
2022/05/04 02:42:31;;;;;;;16.33;3.72;;;7.70;95.20;;;;;;5071194;28;20483;-68
2022/05/04 02:44:58;;;;;;;12.30;2.83;;;7.70;95.00;;;;;;5090142;28;20039;-68
2022/05/04 02:47:24;;;;;;;11.48;3.25;;;7.70;94.90;;;;;;5088490;28;20043;-67
2022/05/04 02:49:49;;;;;;;13.55;2.67;;;7.70;94.70;;;;;;5086620;28;20051;-68
2022/05/04 02:52:15;;;;;;;12.95;2.90;;;7.70;94.70;;;;;;5087222;28;20438;-68
2022/05/04 02:54:41;;;;;;;9.90;2.85;;;7.70;94.60;;;;;;5067439;28;20036;-68
2022/05/04 02:57:09;;;;;;;11.70;2.80;;;7.70;94.50;;;;;;5088111;28;20048;-68
2022/05/04 02:59:34;;;;;;;12.70;2.38;;;7.70;94.50;;;;;;5089910;28;20039;-68
2022/05/04 03:04:44;;;;;;;12.70;2.40;;;7.70;94.60;;;;;;5066314;28;20478;-68
2022/05/04 03:07:10;;;;;;;12.18;2.75;;;7.70;94.60;;;;;;5084926;28;20036;-68
2022/05/04 03:09:36;;;;;;;10.10;2.47;;;7.80;94.70;;;;;;5070658;28;20036;-68
2022/05/04 03:12:02;;;;;;;9.95;2.20;;;7.70;94.60;;;;;;5070482;28;20036;-68
2022/05/04 03:14:28;;;;;;;7.32;1.88;;;7.70;94.70;;;;;;5067953;28;20170;-68
2022/05/04 03:16:55;;;;;;;10.73;2.50;;;7.70;94.70;;;;;;5087852;28;20040;-69
2022/05/04 03:19:24;;;;;;;7.50;2.10;;;7.70;94.90;;;;;;5069802;28;20036;-68
2022/05/04 03:21:51;;;;;;;10.55;2.45;;;7.70;95.00;;;;;;5054330;28;20070;-69
2022/05/04 03:24:17;;;;;;;8.48;2.05;;;7.70;95.10;;;;;;5087149;28;20067;-69
2022/05/04 03:26:43;;;;;;;11.63;2.65;;;7.70;95.20;;;;;;5089195;28;20541;-69
2022/05/04 03:29:10;;;;;;;9.52;2.70;;;7.70;95.30;;;;;;5090076;28;20089;-68
2022/05/04 03:31:36;;;;;;;8.18;2.42;;;7.70;95.40;;;;;;5063979;28;20035;-69
2022/05/04 03:34:02;;;;;;;9.82;2.83;;;7.70;95.40;;;;;;5070416;28;20398;-68
2022/05/04 03:36:27;;;;;;;8.10;2.60;;;7.70;95.90;;;;;;5089471;28;20067;-68
2022/05/04 03:38:53;;;;;;;11.18;3.42;;;7.70;96.00;;;;;;5069561;28;20094;-68
2022/05/04 03:41:19;;;;;;;7.82;3.05;;;7.70;96.10;;;;;;5088783;28;20506;-68
2022/05/04 03:43:45;;;;;;;10.65;2.70;;;7.70;96.20;;;;;;5068559;28;20066;-68
2022/05/04 03:46:25;;;;;;;10.70;2.50;;;7.70;96.30;;;;;;5086886;28;20424;-68
2022/05/04 03:48:55;;;;;;;7.47;2.35;;;7.70;96.30;;;;;;5068641;28;20069;-68
2022/05/04 03:51:21;;;;;;;12.90;2.78;;;7.70;96.60;;;;;;5069226;28;20036;-68
2022/05/04 03:53:48;;;;;;;11.30;2.55;;;7.70;97.00;;;;;;5089485;28;20075;-68
2022/05/04 03:56:15;;;;;;;7.88;2.63;;;7.70;96.50;;;;;;5089120;28;20060;-68
2022/05/04 03:58:41;;;;;;;9.07;2.50;;;7.60;96.50;;;;;;5089325;28;20088;-68
2022/05/04 04:01:07;;;;;;;13.43;3.35;;;7.60;96.40;;;;;;5068208;28;20040;-68
2022/05/04 04:03:33;;;;;;;11.32;3.03;;;7.60;96.30;;;;;;5088882;28;20066;-68
2022/05/04 04:05:59;;;;;;;6.40;1.95;;;7.60;96.40;;;;;;5089493;28;20119;-68
2022/05/04 04:08:25;;;;;;;8.57;2.75;;;7.60;96.50;;;;;;5071554;28;20048;-68
2022/05/04 04:10:51;;;;;;;11.15;3.28;;;7.60;96.80;;;;;;5070998;28;20112;-68
2022/05/04 04:13:17;;;;;;;10.88;2.70;;;7.60;97.00;;;;;;5089402;28;20116;-67
2022/05/04 04:15:43;;;;;;;11.60;2.65;;;7.60;96.90;;;;;;5089632;28;20428;-68
2022/05/04 04:18:09;;;;;;;12.20;2.55;;;7.60;97.10;;;;;;5070317;28;20441;-68
2022/05/04 04:23:20;;;;;;;7.10;2.92;;;7.50;97.30;;;;;;5069864;28;20052;-68
2022/05/04 04:25:46;;;;;;;6.32;2.75;;;7.60;97.50;;;;;;5070839;28;20052;-69
2022/05/04 04:28:12;;;;;;;12.52;2.97;;;7.60;97.80;;;;;;5070666;28;20036;-68
2022/05/04 04:30:38;;;;;;;15.88;3.42;;;7.60;98.00;;;;;;5089557;28;20047;-68
2022/05/04 04:33:06;;;;;;;9.07;2.50;;;7.60;98.20;;;;;;5088234;28;20499;-67
2022/05/04 04:35:35;;;;;;;8.10;2.63;;;7.60;98.20;;;;;;5087564;28;20553;-67
2022/05/04 04:38:01;;;;;;;11.95;3.47;;;7.70;98.30;;;;;;5067040;28;20068;-68
2022/05/04 04:40:27;;;;;;;11.70;2.58;;;7.70;98.00;;;;;;5054056;28;20101;-68
2022/05/04 04:42:53;;;;;;;9.90;2.97;;;7.70;97.90;;;;;;5089302;28;20057;-67
2022/05/04 04:45:19;;;;;;;8.40;2.75;;;7.70;97.80;;;;;;5070958;28;20128;-67
2022/05/04 04:47:46;;;;;;;10.73;2.83;;;7.80;98.10;;;;;;5069499;28;20056;-68
2022/05/04 04:50:12;;;;;;;9.65;2.63;;;7.80;98.20;;;;;;5071252;28;20044;-68
2022/05/04 04:52:37;;;;;;;12.45;3.25;;;7.90;98.40;;;;;;5089076;28;20483;-68
2022/05/04 04:55:04;;;;;;;10.25;3.00;;;7.90;98.70;;;;;;5070431;28;20036;-68
2022/05/04 04:57:30;;;;;;;10.70;3.30;;;7.90;98.90;;;;;;5070728;28;20044;-67
2022/05/04 04:59:55;;;;;;;10.88;2.85;;;7.90;99.20;;;;;;5072314;28;20445;-67
2022/05/04 05:02:21;;;;;;;9.23;2.83;;;7.90;98.70;;;;;;5074172;28;20044;-68
2022/05/04 05:04:47;;;;;;;11.73;3.17;;;7.90;98.10;;;;;;5074281;28;20053;-68
2022/05/04 05:07:12;;;;;;;8.02;3.10;;;7.90;98.20;;;;;;5092991;28;20046;-68
2022/05/04 05:09:38;;;;;;;11.20;3.20;;;7.90;98.30;;;;;;5074754;28;20052;-68
2022/05/04 05:12:04;;;;;;;12.60;3.00;;;7.90;98.20;;;;;;5074135;28;20537;-68
2022/05/04 05:17:14;;;;;;;12.18;2.63;;;7.90;98.00;;;;;;5093012;28;20067;-68
2022/05/04 05:19:40;;;;;;;10.57;2.63;;;8.00;97.40;;;;;;5090066;28;20032;-68
2022/05/04 05:22:06;;;;;;;12.35;2.65;;;8.00;97.50;;;;;;5092642;28;20478;-68
2022/05/04 05:24:32;;;;;;;7.45;2.22;;;8.00;97.10;;;;;;5073493;28;20051;-68
2022/05/04 05:26:58;;;;;;;11.93;3.67;;;8.00;96.60;;;;;;5092684;28;20036;-68
2022/05/04 05:29:23;;;;;;;11.43;3.20;;;8.10;96.80;;;;;;5073892;28;20035;-68
2022/05/04 05:31:49;;;;;;;10.25;2.40;;;8.10;96.90;;;;;;5092640;28;20438;-69
2022/05/04 05:34:14;;;;;;;12.98;2.55;;;8.10;96.90;;;;;;5090924;28;20466;-69
2022/05/04 05:36:40;;;;;;;11.48;2.67;;;8.20;97.00;;;;;;5074827;28;20044;-68
2022/05/04 05:39:06;;;;;;;10.75;3.03;;;8.20;96.90;;;;;;5073387;28;20161;-68
2022/05/04 05:41:31;;;;;;;8.80;2.58;;;8.30;97.00;;;;;;5070589;28;20048;-68
2022/05/04 05:43:57;;;;;;;9.43;2.28;;;8.40;97.10;;;;;;5054455;28;20044;-68
2022/05/04 05:46:23;;;;;;;10.27;2.40;;;8.40;96.70;;;;;;5091703;28;20411;-68
2022/05/04 05:48:49;;;;;;;9.30;2.40;;;8.50;96.80;;;;;;5072820;28;20059;-68
2022/05/04 05:51:15;;;;;;;12.13;2.60;;;8.50;96.60;;;;;;5091704;28;20051;-69
2022/05/04 05:53:40;;;;;;;7.95;2.13;;;8.50;96.40;;;;;;5072307;28;20100;-69
2022/05/04 05:56:06;;;;;;;9.25;2.58;;;8.60;95.90;;;;;;5090642;28;20044;-68
2022/05/04 05:58:32;;;;;;;8.25;2.42;;;8.70;96.20;;;;;;5071064;28;20514;-68
2022/05/04 06:00:58;;;;;;;11.25;2.45;;;8.70;96.30;;;;;;5070982;28;20063;-68
2022/05/04 06:03:24;;;;;;;8.98;1.98;;;8.80;96.60;;;;;;5071553;28;20052;-68
2022/05/04 06:05:50;;;;;;;7.07;1.92;;;8.80;96.20;;;;;;5072108;28;20063;-68
2022/05/04 06:08:15;;;;;;;5.18;1.33;;;8.80;95.50;;;;;;5073342;28;20105;-68
2022/05/04 06:10:41;;;;;;;9.75;2.33;;;8.90;94.50;;;;;;5072185;28;20040;-68
2022/05/04 06:13:07;;;;;;;8.52;1.83;;;9.00;93.50;;;;;;5071276;28;20486;-68
2022/05/04 06:15:33;;;;;;;10.88;2.08;;;8.90;91.50;;;;;;5073303;28;20056;-67
2022/05/04 06:18:01;;;;;;;11.70;2.00;;;8.90;90.80;;;;;;5090098;28;20043;-67
2022/05/04 06:20:27;;;;;;;7.78;2.05;;;8.90;90.50;;;;;;5091637;28;20422;-68
2022/05/04 06:22:53;;;;;;;10.98;1.63;;;8.90;90.20;;;;;;5071056;28;20153;-68
2022/05/04 06:25:19;;;;;;;10.77;1.95;;;8.90;90.00;;;;;;5073701;28;20063;-69
2022/05/04 06:27:44;;;;;;;9.43;2.00;;;8.90;89.50;;;;;;5090633;28;20032;-69
2022/05/04 06:35:39;;;;;;;9.73;2.00;;;9.10;89.10;;;;;;5072285;28;20047;-68
2022/05/04 06:38:05;;;;;;;6.45;1.90;;;9.20;90.00;;;;;;5071306;28;20499;-68
2022/05/04 06:40:31;;;;;;;7.43;1.80;;;9.40;90.10;;;;;;5091518;28;20441;-68
2022/05/04 06:42:57;;;;;;;9.55;2.03;;;9.50;90.20;;;;;;5068950;28;20137;-69
2022/05/04 06:45:23;;;;;;;10.55;1.92;;;9.70;89.70;;;;;;5074489;28;20436;-69
2022/05/04 06:47:48;;;;;;;6.65;1.70;;;9.80;87.80;;;;;;5070022;28;20051;-69
2022/05/04 06:50:14;;;;;;;9.27;2.00;;;9.90;85.90;;;;;;5066325;28;20044;-68
2022/05/04 06:52:41;;;;;;;11.88;2.67;;;9.90;84.60;;;;;;5069423;28;20111;-69
2022/05/04 06:55:08;;;;;;;9.02;1.90;;;9.90;84.30;;;;;;5089155;28;20060;-68
2022/05/04 06:57:34;;;;;;;7.10;1.30;;;10.00;84.10;;;;;;5070635;28;20512;-68
2022/05/04 07:00:04;;;;;;;9.88;1.88;;;10.20;83.30;;;;;;5072986;28;20156;-68
2022/05/04 07:02:33;;;;;;;5.93;1.45;;;10.30;81.90;;;;;;5068963;28;20036;-68
2022/05/04 07:04:59;;;;;;;7.82;1.30;;;10.30;82.30;;;;;;5071626;28;20535;-69
2022/05/04 07:07:25;;;;;;;8.32;1.33;;;10.50;81.10;;;;;;5088702;28;20069;-69
2022/05/04 07:09:50;;;;;;;11.52;1.70;;;10.70;80.60;;;;;;5071819;28;20036;-69
2022/05/04 07:12:16;;;;;;;7.53;1.75;;;11.10;79.20;;;;;;5069960;28;20561;-69
2022/05/04 07:14:42;;;;;;;9.00;1.83;;;11.50;78.90;;;;;;5075073;28;20035;-69
2022/05/04 07:17:07;;;;;;;9.10;1.23;;;11.80;77.50;;;;;;5069481;28;20054;-68
2022/05/04 07:19:33;;;;;;;9.07;2.28;;;12.20;75.90;;;;;;5071248;28;20078;-69
2022/05/04 07:21:59;;;;;;;6.18;1.33;;;12.00;73.70;;;;;;5071809;28;20032;-68
2022/05/04 07:24:25;;;;;;;10.38;1.80;;;12.20;73.00;;;;;;5070600;28;20036;-69
2022/05/04 07:26:51;;;;;;;8.65;2.08;;;12.10;71.40;;;;;;5091076;28;20430;-69
2022/05/04 07:29:16;;;;;;;8.13;1.38;;;12.20;71.60;;;;;;5070272;28;20505;-69
2022/05/04 07:31:43;;;;;;;7.72;2.00;;;12.40;72.80;;;;;;5090939;28;20679;-68
2022/05/04 07:34:08;;;;;;;11.35;1.83;;;12.80;72.20;;;;;;5087645;28;20072;-69
2022/05/04 07:36:34;;;;;;;10.63;2.08;;;13.40;73.00;;;;;;5072451;28;20039;-69
2022/05/04 07:39:00;;;;;;;9.13;1.92;;;13.90;72.00;;;;;;5070064;28;20039;-69
2022/05/04 07:44:10;;;;;;;6.30;1.55;;;14.70;67.20;;;;;;5088740;28;20545;-69
2022/05/04 07:46:36;;;;;;;10.35;1.98;;;15.20;65.50;;;;;;5091023;28;20048;-69
2022/05/04 07:49:02;;;;;;;8.52;1.92;;;15.00;61.30;;;;;;5069953;28;20039;-69
2022/05/04 07:51:28;;;;;;;8.32;1.80;;;14.70;62.20;;;;;;5055634;28;20060;-69
2022/05/04 07:53:54;;;;;;;7.07;1.95;;;14.60;61.80;;;;;;5089657;28;20103;-69
2022/05/04 07:56:20;;;;;;;9.57;1.83;;;15.00;63.00;;;;;;5072558;28;20084;-69
2022/05/04 07:58:46;;;;;;;9.10;1.60;;;15.30;62.20;;;;;;5073696;28;20075;-69
2022/05/04 08:06:40;;;;;;;7.85;1.50;;;15.10;59.40;;;;;;5073781;28;20047;-70
2022/05/04 08:09:09;;;;;;;10.25;1.90;;;14.90;60.20;;;;;;5090342;28;20040;-69
2022/05/04 08:11:34;;;;;;;4.32;1.48;;;15.20;58.80;;;;;;5072915;28;20070;-69
2022/05/04 08:14:00;;;;;;;6.25;1.77;;;15.30;58.60;;;;;;5072018;28;20384;-69
2022/05/04 08:16:26;;;;;;;8.52;2.00;;;15.70;59.00;;;;;;5091406;28;20035;-69
2022/05/04 08:18:51;;;;;;;7.20;1.52;;;16.20;59.40;;;;;;5089502;28;20083;-69
2022/05/04 08:21:17;;;;;;;6.32;1.15;;;16.80;58.30;;;;;;5090442;28;20433;-69
2022/05/04 08:23:43;;;;;;;6.70;1.60;;;17.20;57.30;;;;;;5071100;28;20087;-69
2022/05/04 08:26:11;;;;;;;6.85;1.65;;;16.40;56.00;;;;;;5072613;28;20036;-69
2022/05/04 08:28:36;;;;;;;8.43;1.92;;;16.20;57.40;;;;;;5090655;28;20556;-69
2022/05/04 08:31:03;;;;;;;11.02;2.00;;;16.70;58.90;;;;;;5090375;28;20044;-69
2022/05/04 08:33:29;;;;;;;6.82;1.60;;;17.10;57.20;;;;;;5054827;28;20059;-68
2022/05/04 08:35:55;;;;;;;9.45;1.75;;;17.60;56.60;;;;;;5075722;28;20068;-70
2022/05/04 08:38:22;;;;;;;7.32;1.50;;;17.50;54.80;;;;;;5094235;28;20089;-69
2022/05/04 08:40:49;;;;;;;7.07;1.65;;;16.80;53.90;;;;;;5094828;28;20075;-69
2022/05/04 08:43:18;;;;;;;8.02;1.50;;;15.90;54.10;;;;;;5075952;28;20047;-69
2022/05/04 08:45:45;;;;;;;5.47;1.42;;;15.00;55.20;;;;;;5058578;28;20570;-69
2022/05/04 08:48:12;;;;;;;7.22;1.55;;;14.70;56.30;;;;;;5093070;28;20441;-69
2022/05/04 08:50:40;;;;;;;7.72;1.80;;;14.70;57.00;;;;;;5074637;28;20107;-69
2022/05/04 08:53:07;;;;;;;6.00;1.30;;;14.90;58.90;;;;;;5076089;28;20131;-69
2022/05/04 08:55:36;;;;;;;6.57;1.42;;;15.60;57.30;;;;;;5075758;28;20062;-69
2022/05/04 08:58:02;;;;;;;5.80;1.98;;;16.30;55.80;;;;;;5059334;28;20047;-69
2022/05/04 09:00:28;;;;;;;5.70;1.58;;;16.70;55.40;;;;;;5076849;28;20051;-69
2022/05/04 09:02:54;;;;;;;4.22;1.45;;;17.10;55.00;;;;;;5076846;28;20443;-69
2022/05/04 09:05:24;;;;;;;7.50;1.65;;;17.50;54.20;;;;;;5076519;28;20471;-69
2022/05/04 09:07:53;;;;;;;7.25;2.13;;;18.20;54.00;;;;;;5093952;28;20079;-69
2022/05/04 09:10:27;;;;;;;9.45;2.00;;;18.60;52.70;;;;;;5075687;28;20113;-69
2022/05/04 09:12:55;;;;;;;9.48;1.90;;;19.00;52.00;;;;;;5092228;28;20471;-69
2022/05/04 09:15:26;;;;;;;7.10;1.80;;;18.70;49.30;;;;;;5094506;28;20109;-69
2022/05/04 09:18:07;;;;;;;6.85;1.85;;;18.50;50.30;;;;;;5073377;28;20236;-69
2022/05/04 09:20:48;;;;;;;10.20;2.08;;;18.30;50.40;;;;;;5075520;28;20036;-69
2022/05/04 09:23:18;;;;;;;8.02;1.80;;;18.30;49.00;;;;;;5092276;28;20052;-69
2022/05/04 09:25:44;;;;;;;8.07;1.85;;;18.20;50.40;;;;;;5074732;28;20040;-70
2022/05/04 09:28:15;;;;;;;6.10;1.80;;;18.10;51.00;;;;;;5074370;28;20039;-70
2022/05/04 09:30:52;;;;;;;9.40;1.90;;;18.30;50.30;;;;;;5092095;28;20036;-68
2022/05/04 09:33:29;;;;;;;8.25;2.10;;;18.50;50.10;;;;;;5092219;28;20506;-68
2022/05/04 09:35:59;;;;;;;7.68;1.70;;;18.20;49.10;;;;;;5093307;28;20032;-68
2022/05/04 09:46:49;;;;;;;8.25;2.00;;;18.60;49.90;;;;;;5091740;28;20172;-68
2022/05/04 09:49:20;;;;;;;6.90;1.95;;;18.20;47.50;;;;;;5090696;28;20051;-68
2022/05/04 09:51:53;;;;;;;8.20;1.63;;;17.80;48.60;;;;;;5089871;28;20123;-68
2022/05/04 09:54:27;;;;;;;8.27;2.45;;;17.60;48.70;;;;;;5091830;28;20073;-68
2022/05/04 09:56:55;;;;;;;6.57;1.77;;;16.90;50.50;;;;;;5071791;28;20062;-68
2022/05/04 09:59:23;;;;;;;6.85;1.83;;;16.60;51.60;;;;;;5072752;28;20047;-68
2022/05/04 10:01:51;;;;;;;8.52;1.90;;;16.60;52.40;;;;;;5091976;28;20128;-68
2022/05/04 10:04:18;;;;;;;8.57;2.03;;;16.70;52.40;;;;;;5091077;28;20040;-68
2022/05/04 10:06:44;;;;;;;8.23;1.90;;;16.90;52.60;;;;;;5089093;28;20040;-68
2022/05/04 10:09:11;;;;;;;6.88;1.90;;;17.00;52.00;;;;;;5091487;28;20089;-69
2022/05/04 10:11:37;;;;;;;6.05;1.80;;;17.30;51.50;;;;;;5074418;28;20036;-68
2022/05/04 10:14:09;;;;;;;7.95;1.70;;;17.30;50.50;;;;;;5090120;28;20040;-68
2022/05/04 10:16:40;;;;;;;6.30;1.63;;;17.20;50.30;;;;;;5091745;28;20036;-68
2022/05/04 10:19:11;;;;;;;8.00;1.88;;;17.30;50.90;;;;;;5072757;28;20491;-70
2022/05/04 10:21:37;;;;;;;7.50;1.58;;;17.20;50.00;;;;;;5093207;28;20044;-68
2022/05/04 10:24:07;;;;;;;9.23;2.17;;;17.40;50.00;;;;;;5092328;28;20069;-68
2022/05/04 10:26:38;;;;;;;8.25;2.17;;;17.30;50.40;;;;;;5074638;28;20119;-68
2022/05/04 10:32:42;;;;;;;4.95;1.83;;;17.80;49.70;;;;;;5090123;28;20055;-68
2022/05/04 10:35:17;;;;;;;7.13;1.80;;;17.80;49.40;;;;;;5072150;28;20464;-68
2022/05/04 10:37:57;;;;;;;5.35;2.00;;;17.70;49.10;;;;;;5090717;28;20136;-69
2022/05/04 10:40:53;;;;;;;8.30;2.03;;;18.00;49.00;;;;;;5091640;28;20067;-69
2022/05/04 10:43:35;;;;;;;5.82;1.48;;;18.40;47.50;;;;;;5089404;28;20125;-68
2022/05/04 10:46:10;;;;;;;6.80;2.05;;;18.50;48.10;;;;;;5093720;28;20039;-68
2022/05/04 10:48:41;;;;;;;6.80;1.75;;;18.50;47.20;;;;;;5090161;28;20039;-69
2022/05/04 10:51:21;;;;;;;7.38;1.65;;;18.70;48.60;;;;;;5072412;28;20539;-69
2022/05/04 10:54:08;;;;;;;8.48;2.03;;;18.40;46.40;;;;;;5090742;28;20132;-69
2022/05/04 10:56:50;;;;;;;6.00;1.73;;;18.10;46.90;;;;;;5089449;28;20048;-69
2022/05/04 10:59:33;;;;;;;7.55;1.45;;;18.40;47.40;;;;;;5091322;28;20112;-67
2022/05/04 11:02:04;;;;;;;5.65;1.73;;;18.70;48.00;;;;;;5072460;28;20052;-68
2022/05/04 11:04:31;;;;;;;6.18;1.73;;;18.70;47.00;;;;;;5089421;28;20178;-68
2022/05/04 11:07:05;;;;;;;5.80;1.58;;;18.80;47.50;;;;;;5091239;28;20043;-68
2022/05/04 11:09:32;;;;;;;;;;;18.70;47.60;;;;;;5092648;28;20046;-68
2022/05/04 11:12:03;;;;;;;7.38;2.10;;;18.40;46.70;;;;;;5092028;28;20299;-69
2022/05/04 11:14:29;;;;;;;6.53;1.77;;;18.40;47.60;;;;;;5090326;28;20059;-68
2022/05/04 11:16:57;;;;;;;5.90;1.58;;;18.20;46.60;;;;;;5091314;28;20040;-68
2022/05/04 11:19:25;;;;;;;6.65;1.75;;;18.20;47.80;;;;;;5090527;28;20363;-68
2022/05/04 11:21:51;;;;;;;7.75;1.67;;;18.20;48.70;;;;;;5091502;28;20046;-68
2022/05/04 11:24:17;;;;;;;6.00;1.63;;;18.30;48.00;;;;;;5091255;28;20368;-69
2022/05/04 11:26:45;;;;;;;7.97;1.45;;;18.40;47.30;;;;;;5091143;28;20471;-69
2022/05/04 11:29:14;;;;;;;8.80;2.10;;;18.30;46.90;;;;;;5071680;28;20044;-69
2022/05/04 11:31:48;;;;;;;7.03;1.67;;;17.90;46.70;;;;;;5090581;28;20059;-69
2022/05/04 11:34:15;;;;;;;4.93;1.80;;;18.00;47.50;;;;;;5089960;28;20040;-68
2022/05/04 11:36:45;;;;;;;6.20;1.95;;;18.30;47.90;;;;;;5088856;28;20036;-68
2022/05/04 11:39:18;;;;;;;5.40;1.60;;;18.60;46.30;;;;;;5090793;28;20084;-68
2022/05/04 11:41:48;;;;;;;5.55;1.60;;;18.50;47.10;;;;;;5071719;28;20052;-68
2022/05/04 11:44:15;;;;;;;8.50;2.30;;;17.70;46.30;;;;;;5074403;28;20510;-68
2022/05/04 11:46:45;;;;;;;10.45;1.80;;;17.40;47.90;;;;;;5090259;28;20558;-68
2022/05/04 11:49:11;;;;;;;8.27;2.13;;;17.70;49.40;;;;;;5089999;28;20510;-68
2022/05/04 11:51:37;;;;;;;7.05;1.75;;;18.30;48.10;;;;;;5053785;28;20051;-68
2022/05/04 11:54:04;;;;;;;6.05;1.60;;;19.00;49.30;;;;;;5089939;28;20028;-68
2022/05/04 11:56:30;;;;;;;6.75;2.22;;;19.40;46.50;;;;;;5090918;28;20090;-69
2022/05/04 11:58:57;;;;;;;4.95;1.90;;;19.50;46.30;;;;;;5091659;28;20648;-69
2022/05/04 12:01:23;;;;;;;6.97;1.92;;;19.60;45.50;;;;;;5090359;28;20040;-69
2022/05/04 12:03:50;;;;;;;10.35;1.77;;;19.70;45.40;;;;;;5090221;28;20071;-69
2022/05/04 12:06:17;;;;;;;5.90;1.38;;;19.80;45.10;;;;;;5091320;28;20069;-69
2022/05/04 12:08:43;;;;;;;7.32;1.63;;;19.80;45.50;;;;;;5091320;28;20066;-68
2022/05/04 12:11:10;;;;;;;7.03;1.80;;;20.00;44.60;;;;;;5090319;28;20063;-68
2022/05/04 12:13:38;;;;;;;6.72;1.90;;;20.00;44.90;;;;;;5089653;28;20044;-73
2022/05/04 12:16:05;;;;;;;8.60;1.83;;;19.70;44.30;;;;;;5056408;28;20134;-72
2022/05/04 12:18:32;;;;;;;7.97;1.88;;;19.30;44.80;;;;;;5070453;28;20052;-72
2022/05/04 12:21:22;;;;;;;7.78;2.28;;;18.70;45.80;;;;;;5072082;28;20047;-72
2022/05/04 12:23:53;;;;;;;6.65;2.15;;;18.50;46.80;;;;;;5071973;28;20059;-72
2022/05/04 12:26:19;;;;;;;7.50;2.10;;;18.30;47.50;;;;;;5070306;28;20075;-72
2022/05/04 12:34:19;;;;;;;7.75;1.70;;;19.10;48.10;;;;;;5068748;28;20185;-72
2022/05/04 12:36:45;;;;;;;8.02;2.50;;;19.20;46.50;;;;;;5071981;28;20048;-72
2022/05/04 12:39:11;;;;;;;8.80;1.95;;;19.10;45.90;;;;;;5055036;28;20075;-72
2022/05/04 12:41:37;;;;;;;7.07;2.00;;;19.20;46.10;;;;;;5071931;28;20066;-71
2022/05/04 12:44:06;;;;;;;8.45;2.00;;;19.40;46.80;;;;;;5071600;28;20052;-71
2022/05/04 12:46:32;;;;;;;8.55;2.05;;;19.50;46.30;;;;;;5070706;28;20060;-71
2022/05/04 12:48:58;;;;;;;7.10;2.40;;;19.50;45.50;;;;;;5069564;28;20054;-71
2022/05/04 12:51:24;;;;;;;8.30;2.08;;;19.60;46.50;;;;;;5070807;28;20088;-71
2022/05/04 12:53:51;;;;;;;5.63;1.98;;;19.60;46.00;;;;;;5071629;28;20432;-71
2022/05/04 12:59:03;;;;;;;9.93;1.92;;;19.70;45.70;;;;;;5069755;28;20094;-73
2022/05/04 13:01:31;;;;;;;5.88;1.73;;;19.80;45.80;;;;;;5070706;28;20048;-72
2022/05/04 13:03:58;;;;;;;7.75;2.20;;;19.70;45.70;;;;;;5053141;28;20059;-70
2022/05/04 13:06:24;;;;;;;8.65;2.30;;;19.90;46.10;;;;;;5070473;28;20091;-71
2022/05/04 13:08:50;;;;;;;4.60;1.63;;;19.90;45.70;;;;;;5068491;28;20480;-71
2022/05/04 13:11:16;;;;;;;10.35;1.92;;;19.90;45.30;;;;;;5069539;28;20052;-72
2022/05/04 13:13:42;;;;;;;5.50;1.95;;;19.70;44.60;;;;;;5070997;28;20055;-72
2022/05/04 13:16:08;;;;;;;6.82;2.38;;;19.50;44.40;;;;;;5088845;28;20040;-71
2022/05/04 13:18:34;;;;;;;5.57;1.80;;;19.00;46.00;;;;;;5053188;28;20156;-70
2022/05/04 13:21:00;;;;;;;4.43;1.77;;;18.80;45.40;;;;;;5070766;28;20059;-71
2022/05/04 13:23:25;;;;;;;5.40;1.80;;;18.70;45.70;;;;;;5073111;28;20052;-70
2022/05/04 13:25:51;;;;;;;6.20;2.10;;;18.50;45.80;;;;;;5074656;28;20039;-69
2022/05/04 13:28:17;;;;;;;7.28;1.85;;;18.40;47.10;;;;;;5074498;28;20201;-70
2022/05/04 13:30:44;;;;;;;5.65;1.77;;;18.50;46.90;;;;;;5092022;28;20032;-72
2022/05/04 13:33:10;;;;;;;6.40;1.88;;;18.50;46.70;;;;;;5057526;28;20048;-74
2022/05/04 13:35:36;;;;;;;7.18;2.05;;;18.70;47.70;;;;;;5073833;28;20114;-73
2022/05/04 13:38:04;;;;;;;6.90;2.13;;;19.00;47.00;;;;;;5073382;28;20541;-74